KCRO2: Canadian River nr Konowa, OK

Data processed at Sat Feb 23 2019 23:32


All information presented herein is the property of the government of the United States of America and may be revised or deleted at any time without prior notice.
Dissemination of this information without the expressed written consent of the Public Affairs Office, Tulsa District U.S. Army Corps of Engineers is strictly prohibited.
These data are gathered electronically and, as presented, have not undergone any form of quality control. These data are not guaranteed to be valid or correct.
Go to home page.
Go to station list.
Go to home page.

Upstream stations:

Downstream station:
Previous Day
Next Day
Current Day
    
SHEF ID:       KCRO2     Canadian River nr Konowa, OK
STATION TYPE:  

               PRECIP     STAGE  RIV-FLOW   VOLTAGE  BAT-LOAD
                   in        ft       cfs      volt      volt
              Ccp-Rev   Ccp-Rev   Ccp-Rev   Ccp-Rev   Ccp-Rev
(US/Central)
02/23 00:00      0.01      9.97      1819     12.89     12.65
02/23 01:00      0.00      9.98      1841     12.81     12.65
02/23 02:00      0.00      9.98      1841     12.81     12.65
02/23 03:00      0.00      9.98      1841     12.81     12.65
02/23 04:00      0.00      9.97      1819     12.81     12.65
02/23 05:00      0.01      9.98      1841     12.81     12.65
02/23 06:00      0.16      9.95      1774     12.81     12.65
02/23 07:00      0.00     10.01      1909     12.81     12.65
02/23 08:00      0.01     10.00      1886     12.81     12.65
02/23 09:00      0.00     10.01      1909     13.13     13.05
02/23 10:00      0.00     10.00      1886     13.53     13.29
02/23 11:00      0.01      9.99      1864     13.60     13.37
02/23 12:00      0.00     10.00      1886     13.76     13.44
02/23 13:00      0.00     10.02      1932     14.00     13.60
02/23 14:00      0.00      9.98      1841     13.53     13.37
02/23 15:00      0.00     10.00      1886     14.00     13.53
02/23 16:00      0.00      9.96      1796     13.37     13.21
02/23 17:00      0.02      9.93      1730     13.21     13.13
02/23 18:00      0.01      9.97      1819     13.21     13.05
02/23 19:00      0.00      9.97      1819     13.13     12.97
02/23 20:00      0.00     10.01      1909     13.05     12.97
02/23 21:00      0.00     10.04      1979     13.05     12.89
02/23 22:00      0.00     10.03      1956     13.05     12.89
02/23 23:00      ----      ----      ----      ----      ----